sensor_id;sensor_type;location;lat;lon;timestamp;P1;durP1;ratioP1;P2;durP2;ratioP2
13981;SDS011;7065;50.880;5.502;2022-10-31T00:00:23;25.25;;;16.23;;
13981;SDS011;7065;50.880;5.502;2022-10-31T00:02:49;23.77;;;15.68;;
13981;SDS011;7065;50.880;5.502;2022-10-31T00:05:15;19.45;;;15.82;;
13981;SDS011;7065;50.880;5.502;2022-10-31T00:07:40;22.15;;;16.60;;
13981;SDS011;7065;50.880;5.502;2022-10-31T00:10:06;23.35;;;16.75;;
13981;SDS011;7065;50.880;5.502;2022-10-31T00:12:32;22.15;;;17.30;;
13981;SDS011;7065;50.880;5.502;2022-10-31T00:14:58;23.70;;;17.35;;
13981;SDS011;7065;50.880;5.502;2022-10-31T00:17:24;26.17;;;18.92;;
13981;SDS011;7065;50.880;5.502;2022-10-31T00:19:50;27.15;;;18.35;;
13981;SDS011;7065;50.880;5.502;2022-10-31T00:22:16;25.83;;;18.23;;
13981;SDS011;7065;50.880;5.502;2022-10-31T00:24:41;24.75;;;17.67;;
13981;SDS011;7065;50.880;5.502;2022-10-31T00:27:07;24.63;;;17.83;;
13981;SDS011;7065;50.880;5.502;2022-10-31T00:29:32;22.15;;;16.98;;
13981;SDS011;7065;50.880;5.502;2022-10-31T00:31:58;19.45;;;15.27;;
13981;SDS011;7065;50.880;5.502;2022-10-31T00:34:24;21.67;;;16.17;;
13981;SDS011;7065;50.880;5.502;2022-10-31T00:36:49;20.60;;;15.88;;
13981;SDS011;7065;50.880;5.502;2022-10-31T00:39:15;22.98;;;17.40;;
13981;SDS011;7065;50.880;5.502;2022-10-31T00:41:40;23.50;;;17.23;;
13981;SDS011;7065;50.880;5.502;2022-10-31T00:44:06;26.25;;;16.75;;
13981;SDS011;7065;50.880;5.502;2022-10-31T00:46:32;26.67;;;18.15;;
13981;SDS011;7065;50.880;5.502;2022-10-31T00:48:58;25.35;;;19.08;;
13981;SDS011;7065;50.880;5.502;2022-10-31T00:51:24;24.77;;;18.13;;
13981;SDS011;7065;50.880;5.502;2022-10-31T00:53:50;27.38;;;18.60;;
13981;SDS011;7065;50.880;5.502;2022-10-31T00:56:15;24.48;;;18.52;;
13981;SDS011;7065;50.880;5.502;2022-10-31T00:58:41;21.90;;;17.15;;
13981;SDS011;7065;50.880;5.502;2022-10-31T01:01:06;22.98;;;17.05;;
13981;SDS011;7065;50.880;5.502;2022-10-31T01:03:32;20.60;;;15.95;;
13981;SDS011;7065;50.880;5.502;2022-10-31T01:05:59;22.92;;;17.00;;
13981;SDS011;7065;50.880;5.502;2022-10-31T01:08:27;21.00;;;16.55;;
13981;SDS011;7065;50.880;5.502;2022-10-31T01:11:00;27.00;;;17.80;;
13981;SDS011;7065;50.880;5.502;2022-10-31T01:13:29;22.25;;;17.05;;
13981;SDS011;7065;50.880;5.502;2022-10-31T01:15:55;25.00;;;18.00;;
13981;SDS011;7065;50.880;5.502;2022-10-31T01:18:22;27.63;;;18.58;;
13981;SDS011;7065;50.880;5.502;2022-10-31T01:20:56;24.95;;;17.40;;
13981;SDS011;7065;50.880;5.502;2022-10-31T01:23:30;20.15;;;16.35;;
13981;SDS011;7065;50.880;5.502;2022-10-31T01:28:37;21.13;;;17.08;;
13981;SDS011;7065;50.880;5.502;2022-10-31T01:31:05;26.92;;;18.90;;
13981;SDS011;7065;50.880;5.502;2022-10-31T01:33:32;21.95;;;17.30;;
13981;SDS011;7065;50.880;5.502;2022-10-31T01:35:59;20.30;;;17.38;;
13981;SDS011;7065;50.880;5.502;2022-10-31T01:38:24;25.17;;;17.23;;
13981;SDS011;7065;50.880;5.502;2022-10-31T01:40:51;22.60;;;16.95;;
13981;SDS011;7065;50.880;5.502;2022-10-31T01:43:17;29.60;;;16.83;;
13981;SDS011;7065;50.880;5.502;2022-10-31T01:45:43;27.08;;;17.70;;
13981;SDS011;7065;50.880;5.502;2022-10-31T01:48:15;25.00;;;17.83;;
13981;SDS011;7065;50.880;5.502;2022-10-31T01:50:44;23.85;;;17.83;;
13981;SDS011;7065;50.880;5.502;2022-10-31T01:53:14;22.27;;;16.52;;
13981;SDS011;7065;50.880;5.502;2022-10-31T01:55:41;23.17;;;17.20;;
13981;SDS011;7065;50.880;5.502;2022-10-31T01:58:13;26.65;;;18.63;;
13981;SDS011;7065;50.880;5.502;2022-10-31T02:00:45;22.48;;;16.30;;
13981;SDS011;7065;50.880;5.502;2022-10-31T02:03:14;16.20;;;14.13;;
13981;SDS011;7065;50.880;5.502;2022-10-31T02:05:41;16.55;;;13.45;;
13981;SDS011;7065;50.880;5.502;2022-10-31T02:10:38;15.55;;;13.32;;
13981;SDS011;7065;50.880;5.502;2022-10-31T02:13:07;15.75;;;12.20;;
13981;SDS011;7065;50.880;5.502;2022-10-31T02:15:33;20.20;;;14.30;;
13981;SDS011;7065;50.880;5.502;2022-10-31T02:18:01;21.45;;;16.85;;
13981;SDS011;7065;50.880;5.502;2022-10-31T02:20:31;22.90;;;17.00;;
13981;SDS011;7065;50.880;5.502;2022-10-31T02:28:35;22.92;;;17.08;;
13981;SDS011;7065;50.880;5.502;2022-10-31T02:33:43;27.08;;;17.85;;
13981;SDS011;7065;50.880;5.502;2022-10-31T02:39:10;21.98;;;16.63;;
13981;SDS011;7065;50.880;5.502;2022-10-31T02:41:48;21.52;;;16.63;;
13981;SDS011;7065;50.880;5.502;2022-10-31T02:44:36;24.30;;;17.80;;
13981;SDS011;7065;50.880;5.502;2022-10-31T02:47:08;21.27;;;15.90;;
13981;SDS011;7065;50.880;5.502;2022-10-31T02:49:48;20.67;;;15.35;;
13981;SDS011;7065;50.880;5.502;2022-10-31T02:52:25;20.88;;;15.85;;
13981;SDS011;7065;50.880;5.502;2022-10-31T02:54:53;20.98;;;16.52;;
13981;SDS011;7065;50.880;5.502;2022-10-31T02:57:25;21.15;;;15.52;;
13981;SDS011;7065;50.880;5.502;2022-10-31T03:00:00;19.50;;;15.00;;
13981;SDS011;7065;50.880;5.502;2022-10-31T03:02:54;20.13;;;16.10;;
13981;SDS011;7065;50.880;5.502;2022-10-31T03:05:21;29.67;;;18.15;;
13981;SDS011;7065;50.880;5.502;2022-10-31T03:10:52;22.45;;;15.60;;
13981;SDS011;7065;50.880;5.502;2022-10-31T03:16:17;19.70;;;15.95;;
13981;SDS011;7065;50.880;5.502;2022-10-31T03:19:39;19.25;;;15.02;;
13981;SDS011;7065;50.880;5.502;2022-10-31T03:22:32;18.88;;;14.77;;
13981;SDS011;7065;50.880;5.502;2022-10-31T03:24:53;19.45;;;15.52;;
13981;SDS011;7065;50.880;5.502;2022-10-31T03:27:24;17.45;;;14.95;;
13981;SDS011;7065;50.880;5.502;2022-10-31T03:29:53;18.92;;;15.15;;
13981;SDS011;7065;50.880;5.502;2022-10-31T03:32:23;17.90;;;14.60;;
13981;SDS011;7065;50.880;5.502;2022-10-31T03:34:55;18.88;;;14.88;;
13981;SDS011;7065;50.880;5.502;2022-10-31T03:37:24;23.02;;;16.20;;
13981;SDS011;7065;50.880;5.502;2022-10-31T03:39:53;21.48;;;15.25;;
13981;SDS011;7065;50.880;5.502;2022-10-31T03:42:22;22.30;;;15.52;;
13981;SDS011;7065;50.880;5.502;2022-10-31T03:44:55;19.85;;;15.88;;
13981;SDS011;7065;50.880;5.502;2022-10-31T03:47:29;17.90;;;14.32;;
13981;SDS011;7065;50.880;5.502;2022-10-31T03:49:55;18.92;;;14.10;;
13981;SDS011;7065;50.880;5.502;2022-10-31T03:52:36;19.08;;;15.15;;
13981;SDS011;7065;50.880;5.502;2022-10-31T03:55:19;20.05;;;15.73;;
13981;SDS011;7065;50.880;5.502;2022-10-31T03:57:59;20.67;;;15.25;;
13981;SDS011;7065;50.880;5.502;2022-10-31T04:00:32;19.90;;;15.98;;
13981;SDS011;7065;50.880;5.502;2022-10-31T04:03:00;19.55;;;15.10;;
13981;SDS011;7065;50.880;5.502;2022-10-31T04:05:28;18.48;;;15.25;;
13981;SDS011;7065;50.880;5.502;2022-10-31T04:07:55;17.17;;;13.27;;
13981;SDS011;7065;50.880;5.502;2022-10-31T04:10:23;19.83;;;15.10;;
13981;SDS011;7065;50.880;5.502;2022-10-31T04:12:52;20.77;;;16.08;;
13981;SDS011;7065;50.880;5.502;2022-10-31T04:15:23;18.55;;;15.10;;
13981;SDS011;7065;50.880;5.502;2022-10-31T04:17:52;18.50;;;15.73;;
13981;SDS011;7065;50.880;5.502;2022-10-31T04:20:29;19.30;;;14.15;;
13981;SDS011;7065;50.880;5.502;2022-10-31T04:22:57;17.70;;;14.18;;
13981;SDS011;7065;50.880;5.502;2022-10-31T04:25:23;19.85;;;14.32;;
13981;SDS011;7065;50.880;5.502;2022-10-31T04:27:49;16.27;;;12.85;;
13981;SDS011;7065;50.880;5.502;2022-10-31T04:30:14;16.58;;;12.98;;
13981;SDS011;7065;50.880;5.502;2022-10-31T04:32:40;18.45;;;14.32;;
13981;SDS011;7065;50.880;5.502;2022-10-31T04:35:06;17.38;;;14.65;;
13981;SDS011;7065;50.880;5.502;2022-10-31T04:37:31;17.27;;;14.18;;
13981;SDS011;7065;50.880;5.502;2022-10-31T04:39:57;18.77;;;15.68;;
13981;SDS011;7065;50.880;5.502;2022-10-31T04:42:23;17.27;;;14.20;;
13981;SDS011;7065;50.880;5.502;2022-10-31T04:44:48;22.48;;;15.32;;
13981;SDS011;7065;50.880;5.502;2022-10-31T04:47:14;17.98;;;14.68;;
13981;SDS011;7065;50.880;5.502;2022-10-31T04:49:39;18.40;;;14.32;;
13981;SDS011;7065;50.880;5.502;2022-10-31T04:52:05;19.55;;;15.60;;
13981;SDS011;7065;50.880;5.502;2022-10-31T04:54:32;19.20;;;15.38;;
13981;SDS011;7065;50.880;5.502;2022-10-31T04:56:57;18.88;;;15.15;;
13981;SDS011;7065;50.880;5.502;2022-10-31T04:59:23;21.50;;;15.00;;
13981;SDS011;7065;50.880;5.502;2022-10-31T05:01:48;18.42;;;14.90;;
13981;SDS011;7065;50.880;5.502;2022-10-31T05:04:14;17.55;;;14.23;;
13981;SDS011;7065;50.880;5.502;2022-10-31T05:06:40;16.05;;;14.32;;
13981;SDS011;7065;50.880;5.502;2022-10-31T05:09:05;25.52;;;16.90;;
13981;SDS011;7065;50.880;5.502;2022-10-31T05:11:31;20.77;;;15.88;;
13981;SDS011;7065;50.880;5.502;2022-10-31T05:13:57;20.58;;;14.70;;
13981;SDS011;7065;50.880;5.502;2022-10-31T05:16:23;22.80;;;17.20;;
13981;SDS011;7065;50.880;5.502;2022-10-31T05:18:49;20.80;;;15.95;;
13981;SDS011;7065;50.880;5.502;2022-10-31T05:21:14;19.60;;;15.25;;
13981;SDS011;7065;50.880;5.502;2022-10-31T05:23:40;25.25;;;17.75;;
13981;SDS011;7065;50.880;5.502;2022-10-31T05:26:06;23.52;;;18.13;;
13981;SDS011;7065;50.880;5.502;2022-10-31T05:28:31;24.63;;;16.55;;
13981;SDS011;7065;50.880;5.502;2022-10-31T05:30:57;23.95;;;17.77;;
13981;SDS011;7065;50.880;5.502;2022-10-31T05:33:23;21.15;;;16.25;;
13981;SDS011;7065;50.880;5.502;2022-10-31T05:35:48;26.05;;;17.67;;
13981;SDS011;7065;50.880;5.502;2022-10-31T05:38:14;22.30;;;16.88;;
13981;SDS011;7065;50.880;5.502;2022-10-31T05:40:40;21.55;;;15.57;;
13981;SDS011;7065;50.880;5.502;2022-10-31T05:43:06;22.92;;;16.77;;
13981;SDS011;7065;50.880;5.502;2022-10-31T05:45:32;19.20;;;15.77;;
13981;SDS011;7065;50.880;5.502;2022-10-31T05:47:58;21.52;;;15.65;;
13981;SDS011;7065;50.880;5.502;2022-10-31T05:50:25;25.00;;;16.80;;
13981;SDS011;7065;50.880;5.502;2022-10-31T05:52:54;22.55;;;15.90;;
13981;SDS011;7065;50.880;5.502;2022-10-31T05:55:21;23.67;;;15.82;;
13981;SDS011;7065;50.880;5.502;2022-10-31T05:57:47;23.80;;;15.68;;
13981;SDS011;7065;50.880;5.502;2022-10-31T06:00:12;22.52;;;16.55;;
13981;SDS011;7065;50.880;5.502;2022-10-31T06:02:38;21.85;;;14.77;;
13981;SDS011;7065;50.880;5.502;2022-10-31T06:05:04;16.20;;;13.30;;
13981;SDS011;7065;50.880;5.502;2022-10-31T06:07:33;14.25;;;12.23;;
13981;SDS011;7065;50.880;5.502;2022-10-31T06:10:00;13.95;;;11.05;;
13981;SDS011;7065;50.880;5.502;2022-10-31T06:12:28;15.57;;;11.57;;
13981;SDS011;7065;50.880;5.502;2022-10-31T06:14:54;13.85;;;10.68;;
13981;SDS011;7065;50.880;5.502;2022-10-31T06:17:19;12.57;;;10.90;;
13981;SDS011;7065;50.880;5.502;2022-10-31T06:19:46;10.85;;;9.68;;
13981;SDS011;7065;50.880;5.502;2022-10-31T06:22:12;13.07;;;11.23;;
13981;SDS011;7065;50.880;5.502;2022-10-31T06:24:37;12.85;;;11.10;;
13981;SDS011;7065;50.880;5.502;2022-10-31T06:27:03;16.42;;;12.38;;
13981;SDS011;7065;50.880;5.502;2022-10-31T06:29:30;14.77;;;11.70;;
13981;SDS011;7065;50.880;5.502;2022-10-31T06:31:56;12.40;;;11.10;;
13981;SDS011;7065;50.880;5.502;2022-10-31T06:34:21;14.98;;;12.57;;
13981;SDS011;7065;50.880;5.502;2022-10-31T06:36:47;13.02;;;11.23;;
13981;SDS011;7065;50.880;5.502;2022-10-31T06:39:13;13.95;;;11.35;;
13981;SDS011;7065;50.880;5.502;2022-10-31T06:41:39;13.57;;;10.77;;
13981;SDS011;7065;50.880;5.502;2022-10-31T06:44:06;17.05;;;12.25;;
13981;SDS011;7065;50.880;5.502;2022-10-31T06:46:32;13.10;;;11.40;;
13981;SDS011;7065;50.880;5.502;2022-10-31T06:48:59;14.73;;;12.77;;
13981;SDS011;7065;50.880;5.502;2022-10-31T06:51:25;12.73;;;11.02;;
13981;SDS011;7065;50.880;5.502;2022-10-31T06:53:50;13.38;;;11.23;;
13981;SDS011;7065;50.880;5.502;2022-10-31T06:56:16;15.63;;;11.27;;
13981;SDS011;7065;50.880;5.502;2022-10-31T06:58:42;16.15;;;12.60;;
13981;SDS011;7065;50.880;5.502;2022-10-31T07:01:08;18.35;;;12.20;;
13981;SDS011;7065;50.880;5.502;2022-10-31T07:03:34;18.27;;;12.93;;
13981;SDS011;7065;50.880;5.502;2022-10-31T07:05:59;21.77;;;13.88;;
13981;SDS011;7065;50.880;5.502;2022-10-31T07:08:25;20.70;;;14.20;;
13981;SDS011;7065;50.880;5.502;2022-10-31T07:10:52;17.67;;;13.73;;
13981;SDS011;7065;50.880;5.502;2022-10-31T07:13:19;23.13;;;14.80;;
13981;SDS011;7065;50.880;5.502;2022-10-31T07:15:55;18.45;;;13.77;;
13981;SDS011;7065;50.880;5.502;2022-10-31T07:18:25;16.70;;;12.02;;
13981;SDS011;7065;50.880;5.502;2022-10-31T07:20:51;17.55;;;12.85;;
13981;SDS011;7065;50.880;5.502;2022-10-31T07:23:18;17.25;;;13.93;;
13981;SDS011;7065;50.880;5.502;2022-10-31T07:25:44;17.02;;;13.43;;
13981;SDS011;7065;50.880;5.502;2022-10-31T07:28:09;18.65;;;15.15;;
13981;SDS011;7065;50.880;5.502;2022-10-31T07:30:35;20.20;;;15.68;;
13981;SDS011;7065;50.880;5.502;2022-10-31T07:33:02;21.13;;;16.13;;
13981;SDS011;7065;50.880;5.502;2022-10-31T07:35:28;20.15;;;15.60;;
13981;SDS011;7065;50.880;5.502;2022-10-31T07:37:54;23.15;;;15.68;;
13981;SDS011;7065;50.880;5.502;2022-10-31T07:40:21;20.80;;;16.17;;
13981;SDS011;7065;50.880;5.502;2022-10-31T07:42:48;19.67;;;14.98;;
13981;SDS011;7065;50.880;5.502;2022-10-31T07:45:17;20.95;;;16.13;;
13981;SDS011;7065;50.880;5.502;2022-10-31T07:47:48;22.40;;;16.02;;
13981;SDS011;7065;50.880;5.502;2022-10-31T07:50:19;24.98;;;16.05;;
13981;SDS011;7065;50.880;5.502;2022-10-31T07:52:47;25.45;;;17.33;;
13981;SDS011;7065;50.880;5.502;2022-10-31T07:55:13;21.42;;;16.52;;
13981;SDS011;7065;50.880;5.502;2022-10-31T07:57:39;17.73;;;15.48;;
13981;SDS011;7065;50.880;5.502;2022-10-31T08:00:08;28.13;;;17.08;;
13981;SDS011;7065;50.880;5.502;2022-10-31T08:02:35;21.52;;;15.90;;
13981;SDS011;7065;50.880;5.502;2022-10-31T08:05:01;23.45;;;16.95;;
13981;SDS011;7065;50.880;5.502;2022-10-31T08:07:28;23.40;;;18.00;;
13981;SDS011;7065;50.880;5.502;2022-10-31T08:09:54;24.05;;;17.52;;
13981;SDS011;7065;50.880;5.502;2022-10-31T08:12:20;24.95;;;18.05;;
13981;SDS011;7065;50.880;5.502;2022-10-31T08:14:46;24.77;;;18.13;;
13981;SDS011;7065;50.880;5.502;2022-10-31T08:17:12;21.90;;;18.08;;
13981;SDS011;7065;50.880;5.502;2022-10-31T08:19:38;25.67;;;17.10;;
13981;SDS011;7065;50.880;5.502;2022-10-31T08:22:04;20.30;;;16.55;;
13981;SDS011;7065;50.880;5.502;2022-10-31T08:24:29;22.63;;;17.02;;
13981;SDS011;7065;50.880;5.502;2022-10-31T08:26:55;21.10;;;16.98;;
13981;SDS011;7065;50.880;5.502;2022-10-31T08:29:20;27.05;;;20.17;;
13981;SDS011;7065;50.880;5.502;2022-10-31T08:31:47;30.23;;;20.52;;
13981;SDS011;7065;50.880;5.502;2022-10-31T08:34:12;24.33;;;19.13;;
13981;SDS011;7065;50.880;5.502;2022-10-31T08:36:38;26.00;;;19.30;;
13981;SDS011;7065;50.880;5.502;2022-10-31T08:39:04;26.17;;;19.50;;
13981;SDS011;7065;50.880;5.502;2022-10-31T08:41:30;30.23;;;20.75;;
13981;SDS011;7065;50.880;5.502;2022-10-31T08:43:55;25.58;;;19.98;;
13981;SDS011;7065;50.880;5.502;2022-10-31T08:46:21;32.42;;;22.42;;
13981;SDS011;7065;50.880;5.502;2022-10-31T08:48:47;31.42;;;23.25;;
13981;SDS011;7065;50.880;5.502;2022-10-31T08:51:13;33.00;;;23.20;;
13981;SDS011;7065;50.880;5.502;2022-10-31T08:53:38;31.38;;;24.55;;
13981;SDS011;7065;50.880;5.502;2022-10-31T08:56:04;40.20;;;26.77;;
13981;SDS011;7065;50.880;5.502;2022-10-31T08:58:30;35.90;;;25.80;;
13981;SDS011;7065;50.880;5.502;2022-10-31T09:00:58;36.50;;;25.05;;
13981;SDS011;7065;50.880;5.502;2022-10-31T09:03:26;34.28;;;24.65;;
13981;SDS011;7065;50.880;5.502;2022-10-31T09:05:57;33.50;;;22.55;;
13981;SDS011;7065;50.880;5.502;2022-10-31T09:08:24;31.25;;;23.45;;
13981;SDS011;7065;50.880;5.502;2022-10-31T09:10:51;31.05;;;21.77;;
13981;SDS011;7065;50.880;5.502;2022-10-31T09:13:18;28.10;;;21.08;;
13981;SDS011;7065;50.880;5.502;2022-10-31T09:15:46;29.80;;;22.92;;
13981;SDS011;7065;50.880;5.502;2022-10-31T09:18:15;30.15;;;20.80;;
13981;SDS011;7065;50.880;5.502;2022-10-31T09:20:42;28.88;;;20.55;;
13981;SDS011;7065;50.880;5.502;2022-10-31T09:23:10;30.80;;;21.15;;
13981;SDS011;7065;50.880;5.502;2022-10-31T09:25:36;31.40;;;21.17;;
13981;SDS011;7065;50.880;5.502;2022-10-31T09:28:03;29.08;;;21.05;;
13981;SDS011;7065;50.880;5.502;2022-10-31T09:30:30;30.60;;;22.05;;
13981;SDS011;7065;50.880;5.502;2022-10-31T09:32:58;32.70;;;20.92;;
13981;SDS011;7065;50.880;5.502;2022-10-31T09:35:32;35.17;;;21.92;;
13981;SDS011;7065;50.880;5.502;2022-10-31T09:38:02;27.20;;;20.33;;
13981;SDS011;7065;50.880;5.502;2022-10-31T09:40:32;33.83;;;22.77;;
13981;SDS011;7065;50.880;5.502;2022-10-31T09:43:08;30.73;;;22.33;;
13981;SDS011;7065;50.880;5.502;2022-10-31T09:51:16;30.25;;;21.13;;
13981;SDS011;7065;50.880;5.502;2022-10-31T09:53:53;32.85;;;21.75;;
13981;SDS011;7065;50.880;5.502;2022-10-31T09:56:25;31.40;;;21.33;;
13981;SDS011;7065;50.880;5.502;2022-10-31T09:58:56;31.35;;;21.45;;
13981;SDS011;7065;50.880;5.502;2022-10-31T10:07:05;28.27;;;19.65;;
13981;SDS011;7065;50.880;5.502;2022-10-31T10:09:41;27.80;;;20.65;;
13981;SDS011;7065;50.880;5.502;2022-10-31T10:17:26;32.17;;;21.45;;
13981;SDS011;7065;50.880;5.502;2022-10-31T10:25:38;29.25;;;19.83;;
13981;SDS011;7065;50.880;5.502;2022-10-31T10:30:43;28.58;;;18.05;;
13981;SDS011;7065;50.880;5.502;2022-10-31T10:33:19;31.98;;;20.38;;
13981;SDS011;7065;50.880;5.502;2022-10-31T10:35:52;26.70;;;18.73;;
13981;SDS011;7065;50.880;5.502;2022-10-31T10:40:58;23.90;;;18.92;;
13981;SDS011;7065;50.880;5.502;2022-10-31T10:43:29;30.00;;;19.17;;
13981;SDS011;7065;50.880;5.502;2022-10-31T10:52:10;25.33;;;19.38;;
13981;SDS011;7065;50.880;5.502;2022-10-31T10:58:05;21.85;;;17.33;;
13981;SDS011;7065;50.880;5.502;2022-10-31T11:03:02;27.55;;;19.23;;
13981;SDS011;7065;50.880;5.502;2022-10-31T11:05:47;26.20;;;18.23;;
13981;SDS011;7065;50.880;5.502;2022-10-31T11:11:05;29.60;;;18.58;;
13981;SDS011;7065;50.880;5.502;2022-10-31T11:13:57;26.80;;;16.58;;
13981;SDS011;7065;50.880;5.502;2022-10-31T11:16:46;23.55;;;16.30;;
13981;SDS011;7065;50.880;5.502;2022-10-31T11:19:23;23.73;;;17.17;;
13981;SDS011;7065;50.880;5.502;2022-10-31T11:21:53;22.45;;;15.82;;
13981;SDS011;7065;50.880;5.502;2022-10-31T11:24:30;21.58;;;15.75;;
13981;SDS011;7065;50.880;5.502;2022-10-31T11:27:12;26.17;;;16.30;;
13981;SDS011;7065;50.880;5.502;2022-10-31T11:29:44;24.48;;;15.88;;
13981;SDS011;7065;50.880;5.502;2022-10-31T11:32:20;22.13;;;16.58;;
13981;SDS011;7065;50.880;5.502;2022-10-31T11:34:52;24.23;;;16.52;;
13981;SDS011;7065;50.880;5.502;2022-10-31T11:37:23;21.95;;;15.65;;
13981;SDS011;7065;50.880;5.502;2022-10-31T11:39:52;21.08;;;15.23;;
13981;SDS011;7065;50.880;5.502;2022-10-31T11:42:26;25.98;;;14.70;;
13981;SDS011;7065;50.880;5.502;2022-10-31T11:44:55;21.77;;;14.55;;
13981;SDS011;7065;50.880;5.502;2022-10-31T11:47:24;22.13;;;14.98;;
13981;SDS011;7065;50.880;5.502;2022-10-31T11:49:52;22.42;;;14.30;;
13981;SDS011;7065;50.880;5.502;2022-10-31T11:52:20;19.77;;;13.98;;
13981;SDS011;7065;50.880;5.502;2022-10-31T11:54:49;21.52;;;14.88;;
13981;SDS011;7065;50.880;5.502;2022-10-31T11:57:26;18.92;;;13.45;;
13981;SDS011;7065;50.880;5.502;2022-10-31T12:05:45;20.17;;;14.55;;
13981;SDS011;7065;50.880;5.502;2022-10-31T12:08:16;18.83;;;13.45;;
13981;SDS011;7065;50.880;5.502;2022-10-31T12:10:51;17.23;;;13.43;;
13981;SDS011;7065;50.880;5.502;2022-10-31T12:13:34;23.05;;;13.30;;
13981;SDS011;7065;50.880;5.502;2022-10-31T12:19:06;21.63;;;13.50;;
13981;SDS011;7065;50.880;5.502;2022-10-31T12:27:59;16.15;;;12.77;;
13981;SDS011;7065;50.880;5.502;2022-10-31T12:33:53;19.27;;;12.50;;
13981;SDS011;7065;50.880;5.502;2022-10-31T12:44:05;18.08;;;10.82;;
13981;SDS011;7065;50.880;5.502;2022-10-31T12:46:54;16.17;;;10.23;;
13981;SDS011;7065;50.880;5.502;2022-10-31T12:57:35;17.75;;;11.05;;
13981;SDS011;7065;50.880;5.502;2022-10-31T13:00:17;15.73;;;10.52;;
13981;SDS011;7065;50.880;5.502;2022-10-31T13:05:27;16.45;;;12.20;;
13981;SDS011;7065;50.880;5.502;2022-10-31T13:08:05;24.33;;;13.55;;
13981;SDS011;7065;50.880;5.502;2022-10-31T13:10:40;20.83;;;13.25;;
13981;SDS011;7065;50.880;5.502;2022-10-31T13:15:53;19.27;;;12.85;;
13981;SDS011;7065;50.880;5.502;2022-10-31T13:18:30;18.10;;;13.02;;
13981;SDS011;7065;50.880;5.502;2022-10-31T13:21:03;18.30;;;12.48;;
13981;SDS011;7065;50.880;5.502;2022-10-31T13:23:37;19.45;;;13.68;;
13981;SDS011;7065;50.880;5.502;2022-10-31T13:26:14;19.73;;;14.30;;
13981;SDS011;7065;50.880;5.502;2022-10-31T13:28:47;23.25;;;14.07;;
13981;SDS011;7065;50.880;5.502;2022-10-31T13:31:20;21.77;;;13.65;;
13981;SDS011;7065;50.880;5.502;2022-10-31T13:33:59;20.88;;;12.93;;
13981;SDS011;7065;50.880;5.502;2022-10-31T13:45:11;20.05;;;12.55;;
13981;SDS011;7065;50.880;5.502;2022-10-31T13:47:41;20.17;;;12.63;;
13981;SDS011;7065;50.880;5.502;2022-10-31T13:52:47;18.27;;;11.40;;
13981;SDS011;7065;50.880;5.502;2022-10-31T13:58:23;16.27;;;11.77;;
13981;SDS011;7065;50.880;5.502;2022-10-31T14:00:58;20.25;;;11.55;;
13981;SDS011;7065;50.880;5.502;2022-10-31T14:03:24;20.48;;;11.73;;
13981;SDS011;7065;50.880;5.502;2022-10-31T14:05:53;21.15;;;11.07;;
13981;SDS011;7065;50.880;5.502;2022-10-31T14:08:21;21.73;;;11.43;;
13981;SDS011;7065;50.880;5.502;2022-10-31T14:10:52;15.40;;;11.50;;
13981;SDS011;7065;50.880;5.502;2022-10-31T14:13:24;17.10;;;10.88;;
13981;SDS011;7065;50.880;5.502;2022-10-31T14:16:02;16.88;;;10.70;;
13981;SDS011;7065;50.880;5.502;2022-10-31T14:18:38;14.98;;;10.00;;
13981;SDS011;7065;50.880;5.502;2022-10-31T14:23:50;15.75;;;10.32;;
13981;SDS011;7065;50.880;5.502;2022-10-31T14:28:49;15.73;;;9.48;;
13981;SDS011;7065;50.880;5.502;2022-10-31T14:31:26;14.60;;;9.38;;
13981;SDS011;7065;50.880;5.502;2022-10-31T14:50:27;12.60;;;5.13;;
13981;SDS011;7065;50.880;5.502;2022-10-31T14:52:57;7.55;;;5.00;;
13981;SDS011;7065;50.880;5.502;2022-10-31T14:55:27;6.45;;;4.45;;
13981;SDS011;7065;50.880;5.502;2022-10-31T14:57:54;8.40;;;4.30;;
13981;SDS011;7065;50.880;5.502;2022-10-31T15:00:25;12.00;;;4.78;;
13981;SDS011;7065;50.880;5.502;2022-10-31T15:05:40;10.90;;;4.15;;
13981;SDS011;7065;50.880;5.502;2022-10-31T15:11:09;10.40;;;3.65;;
13981;SDS011;7065;50.880;5.502;2022-10-31T15:13:40;9.57;;;3.95;;
13981;SDS011;7065;50.880;5.502;2022-10-31T15:16:09;8.07;;;3.72;;
13981;SDS011;7065;50.880;5.502;2022-10-31T15:18:38;6.97;;;3.83;;
13981;SDS011;7065;50.880;5.502;2022-10-31T15:21:15;8.68;;;4.10;;
13981;SDS011;7065;50.880;5.502;2022-10-31T15:23:42;6.90;;;3.97;;
13981;SDS011;7065;50.880;5.502;2022-10-31T15:26:11;8.23;;;4.28;;
13981;SDS011;7065;50.880;5.502;2022-10-31T15:28:42;7.53;;;4.03;;
13981;SDS011;7065;50.880;5.502;2022-10-31T15:31:17;8.88;;;4.75;;
13981;SDS011;7065;50.880;5.502;2022-10-31T15:33:44;7.40;;;3.90;;
13981;SDS011;7065;50.880;5.502;2022-10-31T15:36:25;8.20;;;4.00;;
13981;SDS011;7065;50.880;5.502;2022-10-31T15:38:51;9.82;;;4.25;;
13981;SDS011;7065;50.880;5.502;2022-10-31T15:41:22;7.03;;;3.75;;
13981;SDS011;7065;50.880;5.502;2022-10-31T15:44:03;9.05;;;3.47;;
13981;SDS011;7065;50.880;5.502;2022-10-31T15:46:37;12.75;;;3.38;;
13981;SDS011;7065;50.880;5.502;2022-10-31T15:49:02;8.38;;;3.97;;
13981;SDS011;7065;50.880;5.502;2022-10-31T15:51:30;12.05;;;3.28;;
13981;SDS011;7065;50.880;5.502;2022-10-31T15:53:59;6.60;;;3.70;;
13981;SDS011;7065;50.880;5.502;2022-10-31T15:56:27;16.48;;;3.80;;
13981;SDS011;7065;50.880;5.502;2022-10-31T15:58:55;8.25;;;3.90;;
13981;SDS011;7065;50.880;5.502;2022-10-31T16:01:32;8.73;;;3.70;;
13981;SDS011;7065;50.880;5.502;2022-10-31T16:06:27;4.22;;;3.40;;
13981;SDS011;7065;50.880;5.502;2022-10-31T16:08:53;8.80;;;3.45;;
13981;SDS011;7065;50.880;5.502;2022-10-31T16:11:23;7.25;;;3.30;;
13981;SDS011;7065;50.880;5.502;2022-10-31T16:13:55;7.32;;;3.85;;
13981;SDS011;7065;50.880;5.502;2022-10-31T16:16:27;8.73;;;4.22;;
13981;SDS011;7065;50.880;5.502;2022-10-31T16:18:54;8.50;;;4.85;;
13981;SDS011;7065;50.880;5.502;2022-10-31T16:21:24;9.30;;;6.25;;
13981;SDS011;7065;50.880;5.502;2022-10-31T16:24:03;8.20;;;5.97;;
13981;SDS011;7065;50.880;5.502;2022-10-31T16:26:37;8.00;;;5.85;;
13981;SDS011;7065;50.880;5.502;2022-10-31T16:29:02;8.38;;;5.75;;
13981;SDS011;7065;50.880;5.502;2022-10-31T16:31:38;9.75;;;5.22;;
13981;SDS011;7065;50.880;5.502;2022-10-31T16:34:10;10.15;;;4.00;;
13981;SDS011;7065;50.880;5.502;2022-10-31T16:36:56;5.50;;;3.85;;
13981;SDS011;7065;50.880;5.502;2022-10-31T16:39:21;6.00;;;4.10;;
13981;SDS011;7065;50.880;5.502;2022-10-31T16:41:48;6.78;;;4.10;;
13981;SDS011;7065;50.880;5.502;2022-10-31T16:44:23;9.95;;;3.55;;
13981;SDS011;7065;50.880;5.502;2022-10-31T16:47:11;8.07;;;3.75;;
13981;SDS011;7065;50.880;5.502;2022-10-31T16:49:39;6.53;;;3.92;;
13981;SDS011;7065;50.880;5.502;2022-10-31T16:52:06;9.27;;;4.43;;
13981;SDS011;7065;50.880;5.502;2022-10-31T16:54:32;7.43;;;3.67;;
13981;SDS011;7065;50.880;5.502;2022-10-31T16:56:58;7.05;;;3.90;;
13981;SDS011;7065;50.880;5.502;2022-10-31T16:59:25;7.80;;;4.38;;
13981;SDS011;7065;50.880;5.502;2022-10-31T17:01:51;6.90;;;3.88;;
13981;SDS011;7065;50.880;5.502;2022-10-31T17:04:18;10.88;;;4.00;;
13981;SDS011;7065;50.880;5.502;2022-10-31T17:06:44;7.53;;;4.00;;
13981;SDS011;7065;50.880;5.502;2022-10-31T17:09:10;7.25;;;3.65;;
13981;SDS011;7065;50.880;5.502;2022-10-31T17:11:35;7.75;;;3.95;;
13981;SDS011;7065;50.880;5.502;2022-10-31T17:14:10;7.53;;;4.25;;
13981;SDS011;7065;50.880;5.502;2022-10-31T17:16:36;9.68;;;3.45;;
13981;SDS011;7065;50.880;5.502;2022-10-31T17:19:02;6.57;;;4.07;;